Details From YBRM - Broome Intl
To YPPD - Port Hedland Intl
Flight Number -
Tags Generated
Created
Modified
Stats Distance 251 nm / 465 km
Max Altitude 0 ft / 0 m
Waypoints 3
Social Downloads 4
Likes 0
Share VATSIM

Download

Looking for another format? Having issues loading an existing format? Contact us
Advertisement - Login to hide

Notes

Generated

Route

YBRM PPDNM YPPD

ID Type Via Altitude (ft/m) Position (lat/lon) Dist (leg/tot) Name
O YBRM APT - 0 / 0 -17.94581 / 122.21626 - / 0 nm
PPDNM FIX - 0 / 0 -20.37076 / 118.61836 250 / 250 nm
O YPPD APT - 0 / 0 -20.37029 / 118.62929 0 / 251 nm

Altitude Profile

Advertisement - Login to hide

Weather


0- 5 10 15 20 25 30 35+ Temperature / °C

Clouds and Precipitation
Forecast for 2019-03-20 06:00 UTC. Updated 6 hours ago

Ground ~20,000 ft ~40,000 ft Winds

YBRM

Details ICAO YBRM (BME)
Name Broome Intl
Region Australia
Timezone Australia/Perth (UTC+8.0)
Stats Elevation 56 ft / 17 m (AMSL)
Location -17.948700° 122.227000°
Runways 1
Magnetic Variation 1.703° E

METAR

YBRM 200900Z AUTO 01006KT 9999 // NCD 31/24 Q1005

Decode

TAF

TAF TAF AMD YBRM 200905Z 2009/2112 04010KT 9999 FEW030 FM210000 30015KT CAVOK PROB30 INTER 2107/2112 VRB25G40KT 2000 TSRA BKN020 FEW080CB

Decode

Departure Runways

ID Width Length Bearing (true/mag) Surface Threshold Overrun Markings Lighting
10 148 ft / 45 m 8,325 ft / 2,537 m 105.60° / 103.90° ASPHALT 292 ft / 89 m 52 ft / 16 m APP EDGE THRESHOLD
28 148 ft / 45 m 8,325 ft / 2,537 m 285.60° / 283.89° ASPHALT 666 ft / 203 m 0 ft / 0 m APP EDGE THRESHOLD

YPPD

Details ICAO YPPD (PHE)
Name Port Hedland Intl
Region Australia
Timezone Australia/Perth (UTC+8.0)
Stats Elevation 33 ft / 10 m (AMSL)
Location -20.378600° 118.629000°
Runways 2
Magnetic Variation 1.194° E

METAR

YPPD 200900Z AUTO 02013KT 9999 // NCD 33/26 Q1004

Decode

TAF

TAF YPPD 200528Z 2006/2106 02015KT CAVOK FM201000 03010KT CAVOK FM201600 09007KT CAVOK FM202000 12008KT CAVOK FM210000 06015KT CAVOK

Decode

Destination Runways

ID Width Length Bearing (true/mag) Surface Threshold Overrun Markings Lighting
14 148 ft / 45 m 8,216 ft / 2,504 m 137.60° / 136.41° ASPHALT 0 ft / 0 m 0 ft / 0 m APP EDGE THRESHOLD
18 59 ft / 18 m 3,292 ft / 1,003 m 2.40° / 1.21° ASPHALT 0 ft / 0 m 0 ft / 0 m VISUAL EDGE THRESHOLD
32 148 ft / 45 m 8,216 ft / 2,504 m 317.60° / 316.40° ASPHALT 0 ft / 0 m 0 ft / 0 m APP EDGE THRESHOLD
36 59 ft / 18 m 3,292 ft / 1,003 m 182.40° / 181.21° ASPHALT 0 ft / 0 m 0 ft / 0 m VISUAL EDGE THRESHOLD

Popular Alternatives